createdAt,value
2023-05-24T00:02:07.805Z,101285.63
2023-05-24T00:09:09.432Z,101292.81
2023-05-24T00:16:11.067Z,101295.34
2023-05-24T00:23:12.688Z,101302.53
2023-05-24T00:30:14.327Z,101306.63
2023-05-24T00:37:15.922Z,101297.09
2023-05-24T00:44:17.499Z,101299.34
2023-05-24T00:51:19.208Z,101296.19
2023-05-24T00:58:21.255Z,101298.41
2023-05-24T01:05:23.548Z,101295.00
2023-05-24T01:12:28.131Z,101302.56
2023-05-24T01:19:51.480Z,101303.94
2023-05-24T01:27:07.304Z,101314.00
2023-05-24T01:34:09.850Z,101302.78
2023-05-24T01:41:14.097Z,101315.34
2023-05-24T01:48:30.766Z,101320.88
2023-05-24T01:55:32.942Z,101311.66
2023-05-24T02:02:34.645Z,101319.31
2023-05-24T02:09:36.443Z,101320.97
2023-05-24T02:16:42.629Z,101315.09
2023-05-24T02:23:44.446Z,101313.22
2023-05-24T02:30:46.994Z,101313.41
2023-05-24T02:37:48.569Z,101314.78
2023-05-24T02:44:52.487Z,101308.47
2023-05-24T02:51:54.146Z,101310.03
2023-05-24T02:58:56.376Z,101315.00
2023-05-24T03:05:58.080Z,101309.84
2023-05-24T03:12:59.724Z,101314.78
2023-05-24T03:20:01.923Z,101316.41
2023-05-24T03:27:06.583Z,101311.47
2023-05-24T03:34:08.303Z,101328.13
2023-05-24T03:41:11.347Z,101323.00
2023-05-24T03:48:13.768Z,101327.25
2023-05-24T03:55:15.747Z,101333.06
2023-05-24T04:02:17.448Z,101345.94
2023-05-24T04:09:19.215Z,101348.91
2023-05-24T04:16:21.084Z,101350.97
2023-05-24T04:23:22.682Z,101355.31
2023-05-24T04:30:24.374Z,101358.72
2023-05-24T04:37:26.036Z,101357.72
2023-05-24T04:44:28.195Z,101360.34
2023-05-24T04:51:29.771Z,101377.28
2023-05-24T04:58:31.350Z,101381.56
2023-05-24T05:05:33.120Z,101387.19
2023-05-24T05:12:34.748Z,101385.03
2023-05-24T05:19:36.386Z,101405.38
2023-05-24T05:26:38.014Z,101406.06
2023-05-24T05:33:39.677Z,101412.94
2023-05-24T05:40:41.462Z,101417.38
2023-05-24T05:47:43.338Z,101430.28
2023-05-24T05:54:45.034Z,101435.38
2023-05-24T06:01:48.857Z,101441.88
2023-05-24T06:08:50.517Z,101440.66
2023-05-24T06:15:52.791Z,101439.84
2023-05-24T06:22:55.358Z,101451.97
2023-05-24T06:29:56.942Z,101452.03
2023-05-24T06:36:58.675Z,101451.97
2023-05-24T06:44:00.265Z,101467.19
2023-05-24T06:51:02.034Z,101480.84
2023-05-24T06:58:03.939Z,101478.09
2023-05-24T07:05:06.408Z,101488.06
2023-05-24T07:12:09.293Z,101486.44
2023-05-24T07:19:11.112Z,101491.34
2023-05-24T07:26:12.816Z,101497.66
2023-05-24T07:33:14.449Z,101507.41
2023-05-24T07:40:16.240Z,101514.66
2023-05-24T07:47:17.880Z,101505.00
2023-05-24T07:54:19.507Z,101522.09
2023-05-24T08:01:21.139Z,101523.25
2023-05-24T08:08:23.168Z,101531.91
2023-05-24T08:15:24.901Z,101524.78
2023-05-24T08:22:26.503Z,101532.84
2023-05-24T08:29:28.469Z,101545.44
2023-05-24T08:36:30.241Z,101544.59
2023-05-24T08:43:32.929Z,101553.09
2023-05-24T08:50:34.761Z,101548.91
2023-05-24T08:57:39.519Z,101567.25
2023-05-24T09:04:41.637Z,101570.09
2023-05-24T09:11:43.679Z,101571.69
2023-05-24T09:18:45.311Z,101570.59
2023-05-24T09:25:47.681Z,101570.38
2023-05-24T09:32:57.175Z,101579.94
2023-05-24T09:39:58.887Z,101569.28
2023-05-24T09:47:06.752Z,101578.31
2023-05-24T09:54:08.364Z,101576.34
2023-05-24T10:01:18.645Z,101578.34
2023-05-24T10:08:21.480Z,101583.81
2023-05-24T10:15:23.581Z,101590.78
2023-05-24T10:22:26.050Z,101581.75
2023-05-24T10:29:41.962Z,101575.75
2023-05-24T10:36:44.055Z,101579.56
2023-05-24T10:44:00.660Z,101579.97
2023-05-24T10:51:32.878Z,101575.91
2023-05-24T10:58:35.384Z,101595.00
2023-05-24T11:05:52.734Z,101581.47
2023-05-24T11:13:00.016Z,101589.22
2023-05-24T11:20:01.716Z,101589.03
2023-05-24T11:27:03.759Z,101594.56
2023-05-24T11:34:06.830Z,101599.38
2023-05-24T11:41:08.411Z,101593.84
2023-05-24T11:48:10.631Z,101602.81
2023-05-24T11:55:16.481Z,101604.50
2023-05-24T12:02:19.514Z,101602.25
2023-05-24T12:09:21.183Z,101597.75
2023-05-24T12:16:23.362Z,101599.31
2023-05-24T12:23:29.591Z,101593.56
2023-05-24T12:30:31.466Z,101579.88
2023-05-24T12:37:33.533Z,101581.97
2023-05-24T12:44:35.824Z,101572.69
2023-05-24T12:51:37.468Z,101581.91
2023-05-24T12:58:39.134Z,101581.50
2023-05-24T13:05:41.137Z,101583.81
2023-05-24T13:12:43.630Z,101581.72
2023-05-24T13:19:45.247Z,101587.22
2023-05-24T13:26:47.010Z,101575.44
2023-05-24T13:33:49.165Z,101569.22
2023-05-24T13:40:53.523Z,101573.50
2023-05-24T13:47:58.348Z,101587.78
2023-05-24T13:55:00.044Z,101591.09
2023-05-24T14:02:01.821Z,101583.25
2023-05-24T14:09:04.553Z,101568.75
2023-05-24T14:16:06.941Z,101565.13
2023-05-24T14:23:08.631Z,101575.38
2023-05-24T14:30:10.585Z,101566.94
2023-05-24T14:37:12.230Z,101570.47
2023-05-24T14:44:13.931Z,101569.53
2023-05-24T14:51:15.604Z,101577.41
2023-05-24T14:58:17.216Z,101576.06
2023-05-24T15:05:19.381Z,101575.16
2023-05-24T15:12:22.221Z,101574.31
2023-05-24T15:19:23.889Z,101576.41
2023-05-24T15:26:25.576Z,101568.00
2023-05-24T15:33:27.309Z,101567.13
2023-05-24T15:40:28.918Z,101562.06
2023-05-24T15:47:36.140Z,101567.38
2023-05-24T15:54:37.821Z,101560.34
2023-05-24T16:01:39.454Z,101565.56
2023-05-24T16:08:41.120Z,101561.59
2023-05-24T16:15:43.226Z,101575.31
2023-05-24T16:22:49.393Z,101564.78
2023-05-24T16:29:51.594Z,101571.38
2023-05-24T16:36:53.258Z,101573.41
2023-05-24T16:43:54.908Z,101575.78
2023-05-24T16:50:56.720Z,101572.47
2023-05-24T16:57:58.397Z,101576.13
2023-05-24T17:05:00.057Z,101576.16
2023-05-24T17:12:01.839Z,101576.94
2023-05-24T17:19:03.544Z,101578.03
2023-05-24T17:26:07.781Z,101582.91
2023-05-24T17:33:09.451Z,101594.66
2023-05-24T17:40:11.395Z,101597.63
2023-05-24T17:47:13.063Z,101606.22
2023-05-24T17:54:14.673Z,101602.03
2023-05-24T18:01:16.396Z,101614.09
2023-05-24T18:08:18.196Z,101616.91
2023-05-24T18:15:21.066Z,101618.34
2023-05-24T18:22:22.671Z,101629.69
2023-05-24T18:29:24.335Z,101638.78
2023-05-24T18:36:25.976Z,101641.03
2023-05-24T18:43:27.557Z,101644.41
2023-05-24T18:50:29.156Z,101652.72
2023-05-24T18:57:32.936Z,101651.16
2023-05-24T19:04:34.585Z,101667.41
2023-05-24T19:11:36.396Z,101666.97
2023-05-24T19:18:38.040Z,101674.75
2023-05-24T19:25:42.177Z,101679.53
2023-05-24T19:32:43.946Z,101685.91
2023-05-24T19:39:45.568Z,101698.16
2023-05-24T19:46:47.154Z,101704.28
2023-05-24T19:53:48.775Z,101709.22
2023-05-24T20:00:50.401Z,101703.13
2023-05-24T20:07:52.684Z,101707.41
2023-05-24T20:14:54.481Z,101710.56
2023-05-24T20:21:56.164Z,101716.69
2023-05-24T20:28:57.744Z,101712.66
2023-05-24T20:35:59.422Z,101716.50
2023-05-24T20:43:01.127Z,101718.41
2023-05-24T20:50:03.945Z,101720.69
2023-05-24T20:57:06.171Z,101731.69
2023-05-24T21:04:07.778Z,101732.66
2023-05-24T21:11:09.375Z,101738.41
2023-05-24T21:18:10.990Z,101749.56
2023-05-24T21:25:12.738Z,101756.53
2023-05-24T21:32:14.668Z,101757.38
2023-05-24T21:39:16.406Z,101765.78
2023-05-24T21:46:18.016Z,101773.69
2023-05-24T21:53:19.649Z,101770.50
2023-05-24T22:00:21.546Z,101781.94
2023-05-24T22:07:23.151Z,101780.91
2023-05-24T22:14:26.137Z,101793.22
2023-05-24T22:21:28.111Z,101795.88
2023-05-24T22:28:33.966Z,101792.00
2023-05-24T22:35:35.586Z,101792.59
2023-05-24T22:42:37.252Z,101791.91
2023-05-24T22:49:39.230Z,101808.09
2023-05-24T22:56:41.533Z,101805.13
2023-05-24T23:03:43.130Z,101799.03
2023-05-24T23:10:47.725Z,101800.41
2023-05-24T23:17:52.373Z,101798.28
2023-05-24T23:24:53.995Z,101801.00
2023-05-24T23:31:55.732Z,101800.84
2023-05-24T23:38:57.377Z,101804.91
2023-05-24T23:45:58.972Z,101805.97
2023-05-24T23:53:00.556Z,101812.69
